sensor_id;sensor_type;location;lat;lon;timestamp;pressure;altitude;pressure_sealevel;temperature;humidity
22047;BME280;11187;49.412;20.956;2022-08-19T00:00:28;94890.03;;;19.38;100.00
22047;BME280;11187;49.412;20.956;2022-08-19T00:03:03;94885.88;;;19.35;100.00
22047;BME280;11187;49.412;20.956;2022-08-19T00:05:50;94885.88;;;19.35;100.00
22047;BME280;11187;49.412;20.956;2022-08-19T00:08:24;94885.88;;;19.35;100.00
22047;BME280;11187;49.412;20.956;2022-08-19T00:11:11;94888.47;;;19.35;100.00
22047;BME280;11187;49.412;20.956;2022-08-19T00:13:52;94892.16;;;19.31;100.00
22047;BME280;11187;49.412;20.956;2022-08-19T00:16:40;94884.63;;;19.27;100.00
22047;BME280;11187;49.412;20.956;2022-08-19T00:19:36;94888.22;;;19.24;100.00
22047;BME280;11187;49.412;20.956;2022-08-19T00:22:10;94879.88;;;19.19;100.00
22047;BME280;11187;49.412;20.956;2022-08-19T00:25:06;94881.88;;;19.14;100.00
22047;BME280;11187;49.412;20.956;2022-08-19T00:28:12;94879.53;;;19.09;100.00
22047;BME280;11187;49.412;20.956;2022-08-19T00:30:46;94877.88;;;19.08;100.00
22047;BME280;11187;49.412;20.956;2022-08-19T00:33:40;94880.53;;;19.07;100.00
22047;BME280;11187;49.412;20.956;2022-08-19T00:36:39;94879.88;;;19.03;100.00
22047;BME280;11187;49.412;20.956;2022-08-19T00:39:14;94879.88;;;19.03;100.00
22047;BME280;11187;49.412;20.956;2022-08-19T00:42:10;94869.59;;;19.02;100.00
22047;BME280;11187;49.412;20.956;2022-08-19T00:45:11;94869.75;;;18.98;100.00
22047;BME280;11187;49.412;20.956;2022-08-19T00:47:45;94874.19;;;18.96;100.00
22047;BME280;11187;49.412;20.956;2022-08-19T00:50:32;94876.13;;;18.93;100.00
22047;BME280;11187;49.412;20.956;2022-08-19T00:53:20;94875.53;;;18.88;100.00
22047;BME280;11187;49.412;20.956;2022-08-19T00:56:14;94887.00;;;18.84;100.00
22047;BME280;11187;49.412;20.956;2022-08-19T00:59:09;94888.06;;;18.80;100.00
22047;BME280;11187;49.412;20.956;2022-08-19T01:02:02;94888.22;;;18.76;100.00
22047;BME280;11187;49.412;20.956;2022-08-19T01:04:52;94885.03;;;18.71;100.00
22047;BME280;11187;49.412;20.956;2022-08-19T01:07:26;94886.78;;;18.71;100.00
22047;BME280;11187;49.412;20.956;2022-08-19T01:10:20;94899.16;;;18.66;100.00
22047;BME280;11187;49.412;20.956;2022-08-19T01:13:00;94900.16;;;18.63;100.00
22047;BME280;11187;49.412;20.956;2022-08-19T01:15:52;94897.56;;;18.63;100.00
22047;BME280;11187;49.412;20.956;2022-08-19T01:18:47;94896.75;;;18.63;100.00
22047;BME280;11187;49.412;20.956;2022-08-19T01:21:33;94888.22;;;18.61;100.00
22047;BME280;11187;49.412;20.956;2022-08-19T01:24:28;94885.94;;;18.54;100.00
22047;BME280;11187;49.412;20.956;2022-08-19T01:27:40;94879.22;;;18.50;100.00
22047;BME280;11187;49.412;20.956;2022-08-19T01:30:31;94877.56;;;18.49;100.00
22047;BME280;11187;49.412;20.956;2022-08-19T01:33:22;94870.69;;;18.48;100.00
22047;BME280;11187;49.412;20.956;2022-08-19T01:37:05;94868.97;;;18.49;100.00
22047;BME280;11187;49.412;20.956;2022-08-19T01:39:25;94868.09;;;18.48;100.00
22047;BME280;11187;49.412;20.956;2022-08-19T01:41:58;94868.09;;;18.48;100.00
22047;BME280;11187;49.412;20.956;2022-08-19T01:44:52;94863.09;;;18.45;100.00
22047;BME280;11187;49.412;20.956;2022-08-19T01:47:47;94866.63;;;18.44;100.00
22047;BME280;11187;49.412;20.956;2022-08-19T01:50:42;94868.53;;;18.41;100.00
22047;BME280;11187;49.412;20.956;2022-08-19T01:53:37;94859.81;;;18.42;100.00
22047;BME280;11187;49.412;20.956;2022-08-19T01:56:11;94862.41;;;18.42;100.00
22047;BME280;11187;49.412;20.956;2022-08-19T01:59:10;94869.34;;;18.41;100.00
22047;BME280;11187;49.412;20.956;2022-08-19T02:02:06;94863.34;;;18.41;100.00
22047;BME280;11187;49.412;20.956;2022-08-19T02:04:41;94864.28;;;18.40;100.00
22047;BME280;11187;49.412;20.956;2022-08-19T02:07:27;94857.41;;;18.39;100.00
22047;BME280;11187;49.412;20.956;2022-08-19T02:10:08;94855.75;;;18.38;100.00
22047;BME280;11187;49.412;20.956;2022-08-19T02:12:55;94853.28;;;18.34;100.00
22047;BME280;11187;49.412;20.956;2022-08-19T02:15:29;94846.38;;;18.35;100.00
22047;BME280;11187;49.412;20.956;2022-08-19T02:18:23;94845.63;;;18.33;100.00
22047;BME280;11187;49.412;20.956;2022-08-19T02:20:56;94846.50;;;18.32;100.00
22047;BME280;11187;49.412;20.956;2022-08-19T02:23:43;94856.13;;;18.30;100.00
22047;BME280;11187;49.412;20.956;2022-08-19T02:26:16;94838.97;;;18.27;100.00
22047;BME280;11187;49.412;20.956;2022-08-19T02:29:10;94831.47;;;18.23;100.00
22047;BME280;11187;49.412;20.956;2022-08-19T02:31:44;94845.47;;;18.19;100.00
22047;BME280;11187;49.412;20.956;2022-08-19T02:34:42;94848.31;;;18.14;100.00
22047;BME280;11187;49.412;20.956;2022-08-19T02:37:15;94851.97;;;18.10;100.00
22047;BME280;11187;49.412;20.956;2022-08-19T02:40:28;94868.53;;;18.07;100.00
22047;BME280;11187;49.412;20.956;2022-08-19T02:43:03;94865.16;;;18.05;100.00
22047;BME280;11187;49.412;20.956;2022-08-19T02:45:57;94859.41;;;18.00;100.00
22047;BME280;11187;49.412;20.956;2022-08-19T02:48:53;94862.16;;;17.97;100.00
22047;BME280;11187;49.412;20.956;2022-08-19T02:51:39;94847.50;;;17.96;100.00
22047;BME280;11187;49.412;20.956;2022-08-19T02:54:26;94848.69;;;17.90;100.00
22047;BME280;11187;49.412;20.956;2022-08-19T02:57:01;94854.88;;;17.88;100.00
22047;BME280;11187;49.412;20.956;2022-08-19T02:59:47;94855.00;;;17.85;100.00
22047;BME280;11187;49.412;20.956;2022-08-19T03:02:21;94847.41;;;17.82;100.00
22047;BME280;11187;49.412;20.956;2022-08-19T03:05:09;94860.34;;;17.82;100.00
22047;BME280;11187;49.412;20.956;2022-08-19T03:07:43;94863.75;;;17.82;100.00
22047;BME280;11187;49.412;20.956;2022-08-19T03:10:29;94862.97;;;17.80;100.00
22047;BME280;11187;49.412;20.956;2022-08-19T03:13:03;94866.50;;;17.79;100.00
22047;BME280;11187;49.412;20.956;2022-08-19T03:15:51;94867.47;;;17.77;100.00
22047;BME280;11187;49.412;20.956;2022-08-19T03:18:50;94865.91;;;17.74;100.00
22047;BME280;11187;49.412;20.956;2022-08-19T03:21:45;94861.78;;;17.70;100.00
22047;BME280;11187;49.412;20.956;2022-08-19T03:24:19;94866.25;;;17.66;100.00
22047;BME280;11187;49.412;20.956;2022-08-19T03:27:06;94877.38;;;17.68;100.00
22047;BME280;11187;49.412;20.956;2022-08-19T03:29:40;94873.91;;;17.69;100.00
22047;BME280;11187;49.412;20.956;2022-08-19T03:32:34;94874.88;;;17.67;100.00
22047;BME280;11187;49.412;20.956;2022-08-19T03:35:35;94884.72;;;17.60;100.00
22047;BME280;11187;49.412;20.956;2022-08-19T03:38:12;94883.09;;;17.58;100.00
22047;BME280;11187;49.412;20.956;2022-08-19T03:41:03;94884.06;;;17.55;100.00
22047;BME280;11187;49.412;20.956;2022-08-19T03:43:38;94894.59;;;17.52;100.00
22047;BME280;11187;49.412;20.956;2022-08-19T03:46:30;94900.47;;;17.56;100.00
22047;BME280;11187;49.412;20.956;2022-08-19T03:49:09;94902.91;;;17.59;100.00
22047;BME280;11187;49.412;20.956;2022-08-19T03:52:07;94902.91;;;17.59;100.00
22047;BME280;11187;49.412;20.956;2022-08-19T03:55:01;94908.97;;;17.58;100.00
22047;BME280;11187;49.412;20.956;2022-08-19T03:57:34;94906.47;;;17.56;100.00
22047;BME280;11187;49.412;20.956;2022-08-19T04:00:21;94909.84;;;17.58;100.00
22047;BME280;11187;49.412;20.956;2022-08-19T04:02:54;94920.03;;;17.61;100.00
22047;BME280;11187;49.412;20.956;2022-08-19T04:05:40;94916.44;;;17.64;100.00
22047;BME280;11187;49.412;20.956;2022-08-19T04:08:14;94904.50;;;17.61;100.00
22047;BME280;11187;49.412;20.956;2022-08-19T04:11:06;94909.84;;;17.58;100.00
22047;BME280;11187;49.412;20.956;2022-08-19T04:13:40;94915.06;;;17.57;100.00
22047;BME280;11187;49.412;20.956;2022-08-19T04:16:35;94906.47;;;17.56;100.00
22047;BME280;11187;49.412;20.956;2022-08-19T04:19:29;94902.91;;;17.59;100.00
22047;BME280;11187;49.412;20.956;2022-08-19T04:22:03;94906.31;;;17.59;100.00
22047;BME280;11187;49.412;20.956;2022-08-19T04:24:50;94914.00;;;17.61;100.00
22047;BME280;11187;49.412;20.956;2022-08-19T04:27:26;94921.63;;;17.64;100.00
22047;BME280;11187;49.412;20.956;2022-08-19T04:30:14;94914.63;;;17.66;100.00
22047;BME280;11187;49.412;20.956;2022-08-19T04:32:47;94917.03;;;17.69;100.00
22047;BME280;11187;49.412;20.956;2022-08-19T04:35:36;94918.75;;;17.70;100.00
22047;BME280;11187;49.412;20.956;2022-08-19T04:38:10;94921.31;;;17.70;100.00
22047;BME280;11187;49.412;20.956;2022-08-19T04:40:57;94913.50;;;17.71;100.00
22047;BME280;11187;49.412;20.956;2022-08-19T04:43:49;94914.03;;;17.78;100.00
22047;BME280;11187;49.412;20.956;2022-08-19T04:46:43;94903.47;;;17.83;100.00
22047;BME280;11187;49.412;20.956;2022-08-19T04:49:21;94908.31;;;17.89;100.00
22047;BME280;11187;49.412;20.956;2022-08-19T04:52:07;94901.19;;;17.94;100.00
22047;BME280;11187;49.412;20.956;2022-08-19T04:54:41;94910.31;;;18.01;100.00
22047;BME280;11187;49.412;20.956;2022-08-19T04:57:28;94904.72;;;18.09;100.00
22047;BME280;11187;49.412;20.956;2022-08-19T05:00:01;94906.00;;;18.18;100.00
22047;BME280;11187;49.412;20.956;2022-08-19T05:02:56;94903.63;;;18.30;100.00
22047;BME280;11187;49.412;20.956;2022-08-19T05:05:33;94893.63;;;18.40;100.00
22047;BME280;11187;49.412;20.956;2022-08-19T05:08:26;94887.00;;;18.50;100.00
22047;BME280;11187;49.412;20.956;2022-08-19T05:11:12;94884.69;;;18.62;100.00
22047;BME280;11187;49.412;20.956;2022-08-19T05:14:07;94888.38;;;18.73;100.00
22047;BME280;11187;49.412;20.956;2022-08-19T05:17:02;94873.09;;;18.85;100.00
22047;BME280;11187;49.412;20.956;2022-08-19T05:20:08;94868.16;;;18.96;100.00
22047;BME280;11187;49.412;20.956;2022-08-19T05:23:00;94875.28;;;19.08;100.00
22047;BME280;11187;49.412;20.956;2022-08-19T05:25:59;94877.34;;;19.17;100.00
22047;BME280;11187;49.412;20.956;2022-08-19T05:28:34;94881.94;;;19.28;100.00
22047;BME280;11187;49.412;20.956;2022-08-19T05:31:21;94873.44;;;19.40;100.00
22047;BME280;11187;49.412;20.956;2022-08-19T05:33:54;94872.03;;;19.51;100.00
22047;BME280;11187;49.412;20.956;2022-08-19T05:36:43;94871.38;;;19.61;100.00
22047;BME280;11187;49.412;20.956;2022-08-19T05:39:19;94868.13;;;19.74;100.00
22047;BME280;11187;49.412;20.956;2022-08-19T05:42:08;94866.63;;;19.84;100.00
22047;BME280;11187;49.412;20.956;2022-08-19T05:44:43;94861.66;;;19.95;100.00
22047;BME280;11187;49.412;20.956;2022-08-19T05:47:30;94874.91;;;20.05;100.00
22047;BME280;11187;49.412;20.956;2022-08-19T05:50:08;94879.47;;;20.16;100.00
22047;BME280;11187;49.412;20.956;2022-08-19T05:52:55;94884.97;;;20.26;100.00
22047;BME280;11187;49.412;20.956;2022-08-19T05:55:28;94886.84;;;20.38;100.00
22047;BME280;11187;49.412;20.956;2022-08-19T05:58:15;94881.91;;;20.48;100.00
22047;BME280;11187;49.412;20.956;2022-08-19T06:00:49;94880.19;;;20.62;100.00
22047;BME280;11187;49.412;20.956;2022-08-19T06:03:44;94890.63;;;20.75;100.00
22047;BME280;11187;49.412;20.956;2022-08-19T06:06:18;94892.50;;;20.88;100.00
22047;BME280;11187;49.412;20.956;2022-08-19T06:09:13;94888.28;;;20.99;100.00
22047;BME280;11187;49.412;20.956;2022-08-19T06:12:07;94896.16;;;21.12;99.77
22047;BME280;11187;49.412;20.956;2022-08-19T06:14:40;94906.53;;;21.26;100.00
22047;BME280;11187;49.412;20.956;2022-08-19T06:17:40;94903.31;;;21.36;99.69
22047;BME280;11187;49.412;20.956;2022-08-19T06:20:34;94898.28;;;21.47;99.04
22047;BME280;11187;49.412;20.956;2022-08-19T06:23:35;94901.78;;;21.60;98.81
22047;BME280;11187;49.412;20.956;2022-08-19T06:26:12;94908.91;;;21.71;98.41
22047;BME280;11187;49.412;20.956;2022-08-19T06:28:59;94917.13;;;21.78;98.19
22047;BME280;11187;49.412;20.956;2022-08-19T06:31:34;94908.81;;;21.85;97.46
22047;BME280;11187;49.412;20.956;2022-08-19T06:34:21;94909.84;;;21.96;97.22
22047;BME280;11187;49.412;20.956;2022-08-19T06:36:55;94913.22;;;22.10;96.95
22047;BME280;11187;49.412;20.956;2022-08-19T06:39:44;94916.25;;;22.17;96.58
22047;BME280;11187;49.412;20.956;2022-08-19T06:42:17;94906.16;;;22.25;95.97
22047;BME280;11187;49.412;20.956;2022-08-19T06:45:11;94913.47;;;22.33;95.93
22047;BME280;11187;49.412;20.956;2022-08-19T06:48:15;94915.25;;;22.45;96.07
22047;BME280;11187;49.412;20.956;2022-08-19T06:50:51;94910.44;;;22.52;95.53
22047;BME280;11187;49.412;20.956;2022-08-19T06:53:38;94910.03;;;22.58;95.36
22047;BME280;11187;49.412;20.956;2022-08-19T06:56:22;94908.88;;;22.62;95.65
22047;BME280;11187;49.412;20.956;2022-08-19T06:59:23;94912.72;;;22.69;95.38
22047;BME280;11187;49.412;20.956;2022-08-19T07:02:04;94898.81;;;22.82;94.38
22047;BME280;11187;49.412;20.956;2022-08-19T07:04:51;94895.88;;;22.99;93.04
22047;BME280;11187;49.412;20.956;2022-08-19T07:07:24;94896.25;;;23.19;93.69
22047;BME280;11187;49.412;20.956;2022-08-19T07:10:13;94901.41;;;23.31;93.21
22047;BME280;11187;49.412;20.956;2022-08-19T07:12:46;94901.69;;;23.40;92.33
22047;BME280;11187;49.412;20.956;2022-08-19T07:15:40;94904.38;;;23.51;92.15
22047;BME280;11187;49.412;20.956;2022-08-19T07:18:35;94903.84;;;23.70;90.84
22047;BME280;11187;49.412;20.956;2022-08-19T07:21:29;94906.31;;;23.95;89.24
22047;BME280;11187;49.412;20.956;2022-08-19T07:24:24;94904.84;;;24.15;88.76
22047;BME280;11187;49.412;20.956;2022-08-19T07:27:02;94899.03;;;24.34;87.43
22047;BME280;11187;49.412;20.956;2022-08-19T07:29:54;94903.50;;;24.56;86.66
22047;BME280;11187;49.412;20.956;2022-08-19T07:32:27;94896.00;;;24.74;85.67
22047;BME280;11187;49.412;20.956;2022-08-19T07:35:14;94906.81;;;24.92;84.98
22047;BME280;11187;49.412;20.956;2022-08-19T07:37:47;94902.75;;;25.11;84.26
22047;BME280;11187;49.412;20.956;2022-08-19T07:40:41;94909.44;;;25.26;83.59
22047;BME280;11187;49.412;20.956;2022-08-19T07:43:15;94903.78;;;25.42;82.63
22047;BME280;11187;49.412;20.956;2022-08-19T07:46:14;94902.56;;;25.57;81.89
22047;BME280;11187;49.412;20.956;2022-08-19T07:48:49;94899.75;;;25.70;80.89
22047;BME280;11187;49.412;20.956;2022-08-19T07:51:36;94899.56;;;25.83;80.94
22047;BME280;11187;49.412;20.956;2022-08-19T08:06:46;94921.16;;;26.50;74.48
22047;BME280;11187;49.412;20.956;2022-08-19T08:09:40;94920.47;;;26.69;74.21
22047;BME280;11187;49.412;20.956;2022-08-19T08:12:39;94918.84;;;26.77;73.49
22047;BME280;11187;49.412;20.956;2022-08-19T08:15:37;94915.59;;;26.95;71.98
22047;BME280;11187;49.412;20.956;2022-08-19T08:18:24;94916.31;;;27.06;71.35
22047;BME280;11187;49.412;20.956;2022-08-19T08:21:20;94909.75;;;27.22;70.85
22047;BME280;11187;49.412;20.956;2022-08-19T08:24:07;94905.63;;;27.39;69.71
22047;BME280;11187;49.412;20.956;2022-08-19T08:26:47;94907.19;;;27.51;68.91
22047;BME280;11187;49.412;20.956;2022-08-19T08:29:31;94904.03;;;27.67;68.49
22047;BME280;11187;49.412;20.956;2022-08-19T08:32:15;94900.44;;;27.78;68.11
22047;BME280;11187;49.412;20.956;2022-08-19T08:34:57;94905.28;;;27.92;67.06
22047;BME280;11187;49.412;20.956;2022-08-19T08:37:37;94909.03;;;27.99;67.12
22047;BME280;11187;49.412;20.956;2022-08-19T08:40:29;94907.19;;;28.29;65.05
22047;BME280;11187;49.412;20.956;2022-08-19T08:43:32;94904.00;;;28.35;66.28
22047;BME280;11187;49.412;20.956;2022-08-19T08:46:45;94901.75;;;28.40;65.55
22047;BME280;11187;49.412;20.956;2022-08-19T08:49:45;94895.94;;;28.46;65.76
22047;BME280;11187;49.412;20.956;2022-08-19T08:52:36;94896.91;;;28.55;65.14
22047;BME280;11187;49.412;20.956;2022-08-19T08:55:14;94902.13;;;28.65;64.79
22047;BME280;11187;49.412;20.956;2022-08-19T08:58:47;94890.78;;;28.64;66.55
22047;BME280;11187;49.412;20.956;2022-08-19T09:01:42;94890.13;;;28.52;65.42
22047;BME280;11187;49.412;20.956;2022-08-19T09:04:37;94885.25;;;28.38;66.75
22047;BME280;11187;49.412;20.956;2022-08-19T09:10:52;94887.94;;;28.28;66.75
22047;BME280;11187;49.412;20.956;2022-08-19T09:14:09;94878.88;;;28.41;66.22
22047;BME280;11187;49.412;20.956;2022-08-19T09:17:04;94879.16;;;28.57;65.02
22047;BME280;11187;49.412;20.956;2022-08-19T09:20:11;94887.53;;;28.70;64.85
22047;BME280;11187;49.412;20.956;2022-08-19T09:23:07;94884.91;;;28.80;65.44
22047;BME280;11187;49.412;20.956;2022-08-19T09:26:19;94887.63;;;28.88;64.74
22047;BME280;11187;49.412;20.956;2022-08-19T09:29:13;94882.06;;;28.91;65.01
22047;BME280;11187;49.412;20.956;2022-08-19T09:32:01;94884.72;;;28.82;65.30
22047;BME280;11187;49.412;20.956;2022-08-19T09:34:52;94884.09;;;28.70;65.45
22047;BME280;11187;49.412;20.956;2022-08-19T09:37:49;94879.50;;;28.72;64.28
22047;BME280;11187;49.412;20.956;2022-08-19T09:40:44;94886.94;;;28.86;64.13
22047;BME280;11187;49.412;20.956;2022-08-19T09:43:17;94890.75;;;29.02;65.27
22047;BME280;11187;49.412;20.956;2022-08-19T09:46:26;94879.25;;;29.03;64.78
22047;BME280;11187;49.412;20.956;2022-08-19T09:48:59;94878.19;;;28.96;65.22
22047;BME280;11187;49.412;20.956;2022-08-19T09:51:53;94880.41;;;28.90;65.97
22047;BME280;11187;49.412;20.956;2022-08-19T09:54:29;94880.13;;;28.93;64.06
22047;BME280;11187;49.412;20.956;2022-08-19T09:57:31;94886.16;;;29.04;64.85
22047;BME280;11187;49.412;20.956;2022-08-19T10:00:25;94882.00;;;29.01;63.50
22047;BME280;11187;49.412;20.956;2022-08-19T10:03:19;94880.19;;;29.02;64.25
22047;BME280;11187;49.412;20.956;2022-08-19T10:05:57;94885.34;;;29.03;64.62
22047;BME280;11187;49.412;20.956;2022-08-19T10:08:53;94872.72;;;28.97;62.54
22047;BME280;11187;49.412;20.956;2022-08-19T10:11:26;94874.41;;;28.98;63.38
22047;BME280;11187;49.412;20.956;2022-08-19T10:14:20;94880.81;;;28.96;61.82
22047;BME280;11187;49.412;20.956;2022-08-19T10:16:56;94868.28;;;28.98;63.40
22047;BME280;11187;49.412;20.956;2022-08-19T10:20:00;94867.91;;;28.92;64.79
22047;BME280;11187;49.412;20.956;2022-08-19T10:22:54;94870.28;;;28.86;63.38
22047;BME280;11187;49.412;20.956;2022-08-19T10:25:31;94867.97;;;28.83;63.84
22047;BME280;11187;49.412;20.956;2022-08-19T10:28:22;94863.00;;;28.80;63.52
22047;BME280;11187;49.412;20.956;2022-08-19T10:30:55;94862.38;;;28.96;63.95
22047;BME280;11187;49.412;20.956;2022-08-19T10:33:43;94860.63;;;29.04;63.25
22047;BME280;11187;49.412;20.956;2022-08-19T10:36:21;94857.72;;;29.07;61.90
22047;BME280;11187;49.412;20.956;2022-08-19T10:39:36;94851.88;;;29.04;63.18
22047;BME280;11187;49.412;20.956;2022-08-19T10:42:31;94854.81;;;29.10;62.79
22047;BME280;11187;49.412;20.956;2022-08-19T10:45:05;94850.91;;;29.14;62.84
22047;BME280;11187;49.412;20.956;2022-08-19T10:47:52;94851.59;;;29.17;63.50
22047;BME280;11187;49.412;20.956;2022-08-19T10:50:25;94851.84;;;29.13;63.78
22047;BME280;11187;49.412;20.956;2022-08-19T10:53:31;94858.97;;;29.03;63.32
22047;BME280;11187;49.412;20.956;2022-08-19T10:56:06;94860.94;;;29.01;64.10
22047;BME280;11187;49.412;20.956;2022-08-19T10:59:25;94857.75;;;28.98;62.04
22047;BME280;11187;49.412;20.956;2022-08-19T11:02:19;94855.41;;;28.94;63.84
22047;BME280;11187;49.412;20.956;2022-08-19T11:04:52;94852.09;;;28.92;63.31
22047;BME280;11187;49.412;20.956;2022-08-19T11:07:51;94844.50;;;28.89;62.50
22047;BME280;11187;49.412;20.956;2022-08-19T11:10:28;94844.63;;;28.88;63.04
22047;BME280;11187;49.412;20.956;2022-08-19T11:13:32;94832.72;;;28.84;61.63
22047;BME280;11187;49.412;20.956;2022-08-19T11:16:13;94826.63;;;28.83;62.78
22047;BME280;11187;49.412;20.956;2022-08-19T11:19:00;94822.34;;;28.82;62.66
22047;BME280;11187;49.412;20.956;2022-08-19T11:21:54;94824.97;;;28.82;64.55
22047;BME280;11187;49.412;20.956;2022-08-19T11:24:55;94820.59;;;28.91;63.12
22047;BME280;11187;49.412;20.956;2022-08-19T11:27:49;94828.03;;;29.05;62.77
22047;BME280;11187;49.412;20.956;2022-08-19T11:30:23;94824.41;;;29.16;64.01
22047;BME280;11187;49.412;20.956;2022-08-19T11:33:17;94818.13;;;29.17;62.53
22047;BME280;11187;49.412;20.956;2022-08-19T11:35:50;94820.56;;;29.28;62.50
22047;BME280;11187;49.412;20.956;2022-08-19T11:38:45;94824.25;;;29.35;61.63
22047;BME280;11187;49.412;20.956;2022-08-19T11:41:22;94818.38;;;29.42;61.38
22047;BME280;11187;49.412;20.956;2022-08-19T11:44:16;94817.94;;;29.46;62.04
22047;BME280;11187;49.412;20.956;2022-08-19T11:46:49;94823.41;;;29.53;61.92
22047;BME280;11187;49.412;20.956;2022-08-19T11:49:39;94809.09;;;29.55;62.25
22047;BME280;11187;49.412;20.956;2022-08-19T11:52:12;94817.69;;;29.58;61.95
22047;BME280;11187;49.412;20.956;2022-08-19T11:54:59;94809.78;;;29.58;61.00
22047;BME280;11187;49.412;20.956;2022-08-19T11:57:32;94817.75;;;29.66;61.14
22047;BME280;11187;49.412;20.956;2022-08-19T12:00:27;94803.59;;;29.67;59.64
22047;BME280;11187;49.412;20.956;2022-08-19T12:03:01;94809.41;;;29.70;58.19
22047;BME280;11187;49.412;20.956;2022-08-19T12:05:55;94799.38;;;29.74;57.79
22047;BME280;11187;49.412;20.956;2022-08-19T12:08:28;94793.09;;;29.75;59.47
22047;BME280;11187;49.412;20.956;2022-08-19T12:11:15;94799.03;;;29.69;59.21
22047;BME280;11187;49.412;20.956;2022-08-19T12:13:48;94802.84;;;29.74;59.95
22047;BME280;11187;49.412;20.956;2022-08-19T12:16:35;94799.25;;;29.75;58.00
22047;BME280;11187;49.412;20.956;2022-08-19T12:19:31;94796.59;;;29.75;58.74
22047;BME280;11187;49.412;20.956;2022-08-19T12:22:26;94796.75;;;29.74;57.70
22047;BME280;11187;49.412;20.956;2022-08-19T12:25:20;94802.16;;;29.72;59.79
22047;BME280;11187;49.412;20.956;2022-08-19T12:28:14;94797.88;;;29.71;59.10
22047;BME280;11187;49.412;20.956;2022-08-19T12:30:49;94804.81;;;29.72;57.61
22047;BME280;11187;49.412;20.956;2022-08-19T12:33:43;94810.75;;;29.74;56.68
22047;BME280;11187;49.412;20.956;2022-08-19T12:36:39;94815.06;;;29.75;57.47
22047;BME280;11187;49.412;20.956;2022-08-19T12:39:12;94818.22;;;29.79;57.56
22047;BME280;11187;49.412;20.956;2022-08-19T12:41:59;94806.03;;;29.78;57.13
22047;BME280;11187;49.412;20.956;2022-08-19T12:44:32;94803.97;;;29.72;58.13
22047;BME280;11187;49.412;20.956;2022-08-19T12:47:21;94804.19;;;29.61;58.33
22047;BME280;11187;49.412;20.956;2022-08-19T12:49:57;94811.28;;;29.60;58.36
22047;BME280;11187;49.412;20.956;2022-08-19T12:52:48;94806.97;;;29.59;56.89
22047;BME280;11187;49.412;20.956;2022-08-19T12:55:21;94803.38;;;29.60;56.47
22047;BME280;11187;49.412;20.956;2022-08-19T12:58:09;94803.00;;;29.55;56.69
22047;BME280;11187;49.412;20.956;2022-08-19T13:00:43;94805.63;;;29.55;55.97
22047;BME280;11187;49.412;20.956;2022-08-19T13:03:37;94805.63;;;29.55;56.98
22047;BME280;11187;49.412;20.956;2022-08-19T13:06:31;94796.50;;;29.49;58.11
22047;BME280;11187;49.412;20.956;2022-08-19T13:09:25;94792.38;;;29.47;57.70
22047;BME280;11187;49.412;20.956;2022-08-19T13:11:58;94794.69;;;29.50;57.01
22047;BME280;11187;49.412;20.956;2022-08-19T13:14:47;94797.97;;;29.44;57.50
22047;BME280;11187;49.412;20.956;2022-08-19T13:17:22;94797.09;;;29.43;58.35
22047;BME280;11187;49.412;20.956;2022-08-19T13:20:10;94798.41;;;29.39;57.61
22047;BME280;11187;49.412;20.956;2022-08-19T13:22:43;94788.16;;;29.36;58.51
22047;BME280;11187;49.412;20.956;2022-08-19T13:25:37;94784.47;;;29.29;57.27
22047;BME280;11187;49.412;20.956;2022-08-19T13:28:32;94782.81;;;29.28;56.41
22047;BME280;11187;49.412;20.956;2022-08-19T13:31:44;94784.38;;;29.39;56.26
22047;BME280;11187;49.412;20.956;2022-08-19T13:34:57;94780.09;;;29.38;56.66
22047;BME280;11187;49.412;20.956;2022-08-19T13:37:55;94782.88;;;29.36;56.93
22047;BME280;11187;49.412;20.956;2022-08-19T13:40:28;94777.59;;;29.36;57.10
22047;BME280;11187;49.412;20.956;2022-08-19T13:43:25;94776.28;;;29.32;57.59
22047;BME280;11187;49.412;20.956;2022-08-19T13:45:58;94777.09;;;29.32;57.92
22047;BME280;11187;49.412;20.956;2022-08-19T13:48:46;94770.00;;;29.33;57.42
22047;BME280;11187;49.412;20.956;2022-08-19T13:51:20;94767.91;;;29.37;57.82
22047;BME280;11187;49.412;20.956;2022-08-19T13:54:14;94764.72;;;29.33;57.52
22047;BME280;11187;49.412;20.956;2022-08-19T13:57:08;94766.53;;;29.32;58.32
22047;BME280;11187;49.412;20.956;2022-08-19T14:00:03;94767.81;;;29.28;58.69
22047;BME280;11187;49.412;20.956;2022-08-19T14:02:38;94767.81;;;29.28;58.21
22047;BME280;11187;49.412;20.956;2022-08-19T14:05:27;94758.09;;;29.29;57.73
22047;BME280;11187;49.412;20.956;2022-08-19T14:08:00;94771.50;;;29.35;57.58
22047;BME280;11187;49.412;20.956;2022-08-19T14:10:47;94768.88;;;29.35;58.08
22047;BME280;11187;49.412;20.956;2022-08-19T14:13:23;94763.44;;;29.37;58.50
22047;BME280;11187;49.412;20.956;2022-08-19T14:16:12;94759.31;;;29.34;58.89
22047;BME280;11187;49.412;20.956;2022-08-19T14:18:48;94759.13;;;29.36;59.09
22047;BME280;11187;49.412;20.956;2022-08-19T14:21:35;94765.41;;;29.35;59.78
22047;BME280;11187;49.412;20.956;2022-08-19T14:24:08;94770.81;;;29.33;59.92
22047;BME280;11187;49.412;20.956;2022-08-19T14:26:57;94765.72;;;29.32;60.13
22047;BME280;11187;49.412;20.956;2022-08-19T14:29:32;94769.47;;;29.29;60.89
22047;BME280;11187;49.412;20.956;2022-08-19T14:32:27;94764.13;;;29.21;60.93
22047;BME280;11187;49.412;20.956;2022-08-19T14:35:04;94760.97;;;29.18;61.57
22047;BME280;11187;49.412;20.956;2022-08-19T14:37:52;94767.50;;;29.13;61.05
22047;BME280;11187;49.412;20.956;2022-08-19T14:40:29;94772.63;;;29.15;60.80
22047;BME280;11187;49.412;20.956;2022-08-19T14:43:16;94770.69;;;29.17;60.11